Time;durP1;ratioP1;P1;durP2;ratioP2;P2;SDS_P1;SDS_P2;PMS_P1;PMS_P2;Temp;Humidity;BMP_temperature;BMP_pressure;BME280_temperature;BME280_humidity;BME280_pressure;Samples;Min_cycle;Max_cycle;Signal;HPM_P1;HPM_P2
2022/12/29 00:00:11;;;;;;;2.63;2.17;;;6.00;98.00;;;;;;5094965;28;20466;-70
2022/12/29 00:02:38;;;;;;;2.47;1.80;;;6.10;98.00;;;;;;5094708;28;20449;-69
2022/12/29 00:05:06;;;;;;;2.50;2.00;;;6.20;98.00;;;;;;5093654;28;20455;-70
2022/12/29 00:07:35;;;;;;;4.50;1.90;;;6.10;98.00;;;;;;5094620;28;20494;-69
2022/12/29 00:10:02;;;;;;;2.57;1.70;;;6.00;98.00;;;;;;5094626;28;20469;-70
2022/12/29 00:15:36;;;;;;;2.70;1.80;;;6.00;98.00;;;;;;5094421;28;20483;-69
2022/12/29 00:18:01;;;;;;;1.83;1.37;;;6.00;98.00;;;;;;5094393;28;20443;-69
2022/12/29 00:37:13;;;;;;;1.97;1.60;;;6.30;98.00;;;;;;5094203;28;20544;-70
2022/12/29 00:45:10;;;;;;;2.73;2.20;;;6.50;98.00;;;;;;5094114;28;20443;-69
2022/12/29 00:47:37;;;;;;;2.80;1.97;;;6.60;98.00;;;;;;5092671;28;20480;-69
2022/12/29 00:50:05;;;;;;;4.60;2.27;;;6.40;98.00;;;;;;5094114;28;20458;-69
2022/12/29 00:52:32;;;;;;;2.33;1.90;;;6.10;98.00;;;;;;5093921;28;20460;-70
2022/12/29 00:55:00;;;;;;;2.03;1.50;;;6.00;98.00;;;;;;5094035;28;20935;-69
2022/12/29 00:57:27;;;;;;;2.07;1.50;;;6.00;98.00;;;;;;5093754;28;20452;-69
2022/12/29 00:59:55;;;;;;;2.03;1.70;;;6.00;98.00;;;;;;5093921;28;20452;-69
2022/12/29 01:02:23;;;;;;;4.40;1.50;;;6.00;98.00;;;;;;5093469;28;20456;-69
2022/12/29 01:04:50;;;;;;;2.47;1.70;;;6.00;98.00;;;;;;5093774;28;21005;-69
2022/12/29 01:07:17;;;;;;;3.83;1.40;;;6.10;98.00;;;;;;5093080;28;20455;-69
2022/12/29 01:12:43;;;;;;;2.07;1.67;;;6.20;98.00;;;;;;5092709;28;20456;-69
2022/12/29 01:15:13;;;;;;;1.73;1.40;;;6.30;98.00;;;;;;5093266;28;20504;-70
2022/12/29 01:17:40;;;;;;;2.17;1.77;;;6.40;98.00;;;;;;5093133;28;20512;-70
2022/12/29 01:20:08;;;;;;;1.87;1.37;;;6.60;98.00;;;;;;5093151;28;20459;-70
2022/12/29 01:22:35;;;;;;;2.80;1.97;;;6.40;98.00;;;;;;5093149;28;20460;-69
2022/12/29 01:25:02;;;;;;;3.23;2.07;;;6.50;98.00;;;;;;5093182;28;20461;-69
2022/12/29 01:27:30;;;;;;;3.17;1.97;;;6.50;98.00;;;;;;5092069;28;20455;-69
2022/12/29 01:29:58;;;;;;;6.73;1.90;;;6.30;98.00;;;;;;5093125;28;20523;-69
2022/12/29 01:32:25;;;;;;;1.93;1.73;;;6.40;98.00;;;;;;5093040;28;20838;-69
2022/12/29 01:34:52;;;;;;;2.73;1.47;;;6.40;98.00;;;;;;5093082;28;20807;-69
2022/12/29 01:37:19;;;;;;;2.63;1.67;;;6.30;98.00;;;;;;5092882;28;20451;-69
2022/12/29 01:39:46;;;;;;;1.90;1.80;;;6.40;98.00;;;;;;5093124;28;20486;-69
2022/12/29 01:42:18;;;;;;;2.40;2.20;;;6.50;98.00;;;;;;5092872;28;20451;-69
2022/12/29 01:44:52;;;;;;;2.73;1.40;;;6.50;98.00;;;;;;5093118;28;20463;-69
2022/12/29 01:47:26;;;;;;;2.20;1.63;;;6.50;98.00;;;;;;5092640;28;20959;-70
2022/12/29 01:49:56;;;;;;;1.83;1.63;;;6.60;98.00;;;;;;5092975;28;20458;-70
2022/12/29 01:52:25;;;;;;;2.60;1.50;;;6.60;98.00;;;;;;5092892;28;20463;-69
2022/12/29 01:54:55;;;;;;;16.20;1.80;;;6.70;98.00;;;;;;5093090;28;20516;-70
2022/12/29 01:57:26;;;;;;;1.40;1.40;;;6.60;98.00;;;;;;5092574;28;20470;-70
2022/12/29 01:59:59;;;;;;;1.57;1.37;;;6.70;98.00;;;;;;5092649;28;20456;-69
2022/12/29 02:02:26;;;;;;;2.30;1.60;;;6.70;98.00;;;;;;5092356;28;20461;-70
2022/12/29 02:04:56;;;;;;;1.50;1.30;;;6.60;98.00;;;;;;5092560;28;20502;-70
2022/12/29 02:07:25;;;;;;;4.67;1.60;;;6.60;98.00;;;;;;5092249;28;20692;-70
2022/12/29 02:10:00;;;;;;;5.00;1.80;;;6.60;98.00;;;;;;5092458;28;20453;-69
2022/12/29 02:12:27;;;;;;;2.00;1.67;;;6.50;98.00;;;;;;5092174;28;20458;-69
2022/12/29 02:14:59;;;;;;;1.50;1.37;;;6.60;98.00;;;;;;5092249;28;20980;-69
2022/12/29 02:17:42;;;;;;;1.50;1.50;;;6.60;98.00;;;;;;5092146;28;20962;-69
2022/12/29 02:20:38;;;;;;;1.90;1.30;;;6.60;98.00;;;;;;5092127;28;20505;-69
2022/12/29 02:23:33;;;;;;;2.37;1.60;;;6.70;98.00;;;;;;5092080;28;20462;-69
2022/12/29 02:26:30;;;;;;;1.93;1.50;;;6.80;98.00;;;;;;5090222;28;20464;-69
2022/12/29 02:29:34;;;;;;;2.80;1.50;;;6.80;98.00;;;;;;5091371;28;20801;-69
2022/12/29 02:32:08;;;;;;;2.10;1.40;;;6.90;98.00;;;;;;5052688;28;20499;-69
2022/12/29 02:34:47;;;;;;;1.97;1.47;;;7.00;98.00;;;;;;5092267;28;20488;-69
2022/12/29 02:37:22;;;;;;;1.47;1.10;;;7.10;98.00;;;;;;5091645;28;20534;-69
2022/12/29 02:39:57;;;;;;;2.23;1.50;;;7.40;98.00;;;;;;5092061;28;20465;-69
2022/12/29 02:42:34;;;;;;;1.40;1.40;;;7.70;98.00;;;;;;5091905;28;20452;-70
2022/12/29 02:45:05;;;;;;;2.20;1.47;;;7.70;98.00;;;;;;5091971;28;20455;-69
2022/12/29 02:47:38;;;;;;;1.30;1.20;;;7.80;98.00;;;;;;5091835;28;20474;-69
2022/12/29 02:50:14;;;;;;;1.93;1.60;;;7.90;98.00;;;;;;5091875;28;20450;-69
2022/12/29 02:52:47;;;;;;;1.70;1.30;;;7.90;98.00;;;;;;5091821;28;20828;-69
2022/12/29 02:55:16;;;;;;;3.13;2.00;;;8.00;98.00;;;;;;5091973;28;20491;-69
2022/12/29 02:57:44;;;;;;;1.60;1.50;;;8.00;98.00;;;;;;5092135;28;20469;-70
2022/12/29 03:00:15;;;;;;;3.27;1.37;;;8.10;98.00;;;;;;5091555;28;20456;-69
2022/12/29 03:03:10;;;;;;;2.40;1.80;;;8.40;98.00;;;;;;5091671;28;20968;-69
2022/12/29 03:06:07;;;;;;;2.33;1.50;;;8.50;98.00;;;;;;5091456;28;20940;-69
2022/12/29 03:08:41;;;;;;;2.10;1.80;;;8.80;98.00;;;;;;5090747;28;20471;-69
2022/12/29 03:12:07;;;;;;;1.87;1.60;;;9.10;98.00;;;;;;5090345;28;20507;-69
2022/12/29 03:16:50;;;;;;;1.20;1.10;;;9.90;98.00;;;;;;5091646;28;20518;-69
2022/12/29 03:19:24;;;;;;;2.13;1.57;;;10.30;98.00;;;;;;5091520;28;20954;-69
2022/12/29 03:24:50;;;;;;;2.00;1.50;;;10.50;98.00;;;;;;5091673;28;20440;-69
2022/12/29 03:27:22;;;;;;;1.30;1.20;;;10.60;98.00;;;;;;5091544;28;20451;-69
2022/12/29 03:29:54;;;;;;;1.70;1.37;;;10.60;98.00;;;;;;5091558;28;20453;-70
2022/12/29 03:32:24;;;;;;;1.53;1.30;;;10.70;98.00;;;;;;5091452;28;20493;-69
2022/12/29 03:34:55;;;;;;;1.50;1.50;;;10.90;98.00;;;;;;5091621;28;20484;-70
2022/12/29 03:37:27;;;;;;;1.87;1.40;;;11.00;98.00;;;;;;5091287;28;20464;-69
2022/12/29 03:39:54;;;;;;;5.03;1.60;;;11.00;98.00;;;;;;5091424;28;20504;-70
2022/12/29 03:42:25;;;;;;;1.50;1.33;;;11.00;98.00;;;;;;5091426;28;20459;-69
2022/12/29 03:44:56;;;;;;;2.17;1.40;;;11.20;98.00;;;;;;5091401;28;20461;-70
2022/12/29 03:47:25;;;;;;;2.60;1.60;;;11.20;98.00;;;;;;5091147;28;20559;-69
2022/12/29 03:49:53;;;;;;;1.20;1.17;;;11.20;98.00;;;;;;5092032;28;20451;-69
2022/12/29 03:52:20;;;;;;;2.40;1.40;;;11.30;98.00;;;;;;5095074;28;20463;-70
2022/12/29 03:54:48;;;;;;;2.40;1.23;;;11.30;98.00;;;;;;5095247;28;20481;-69
2022/12/29 03:57:15;;;;;;;1.67;1.40;;;11.30;98.00;;;;;;5094900;28;20802;-70
2022/12/29 03:59:43;;;;;;;2.03;1.30;;;11.40;98.00;;;;;;5094816;28;20457;-69
2022/12/29 04:02:10;;;;;;;1.97;1.30;;;11.50;98.00;;;;;;5094694;28;20930;-69
2022/12/29 04:04:36;;;;;;;1.33;1.30;;;11.40;98.00;;;;;;5094708;28;20455;-69
2022/12/29 04:07:05;;;;;;;1.80;1.30;;;11.50;98.00;;;;;;5094469;28;20456;-69
2022/12/29 04:09:32;;;;;;;1.70;1.43;;;11.50;98.00;;;;;;5094733;28;20463;-69
2022/12/29 04:11:59;;;;;;;2.33;1.50;;;11.50;98.00;;;;;;5094598;28;20934;-70
2022/12/29 04:14:29;;;;;;;2.83;1.53;;;11.60;98.00;;;;;;5094413;28;20981;-69
2022/12/29 04:16:56;;;;;;;3.30;1.40;;;11.70;98.00;;;;;;5094701;28;20506;-69
2022/12/29 04:19:23;;;;;;;2.17;1.30;;;11.70;98.00;;;;;;5094341;28;20467;-69
2022/12/29 04:21:50;;;;;;;1.50;1.40;;;11.70;98.00;;;;;;5094517;28;20457;-69
2022/12/29 04:24:19;;;;;;;1.50;1.30;;;11.60;98.00;;;;;;5094315;28;20461;-70
2022/12/29 04:26:46;;;;;;;1.90;1.50;;;11.50;98.00;;;;;;5094298;28;20451;-69
2022/12/29 04:29:13;;;;;;;1.50;1.20;;;11.50;98.00;;;;;;5094383;28;20456;-70
2022/12/29 04:31:40;;;;;;;1.77;1.47;;;11.40;98.00;;;;;;5094450;28;20465;-70
2022/12/29 04:34:07;;;;;;;1.50;1.40;;;11.40;98.00;;;;;;5094147;28;20549;-69
2022/12/29 04:36:34;;;;;;;4.43;2.60;;;11.40;98.00;;;;;;5094032;28;20457;-69
2022/12/29 04:39:02;;;;;;;3.23;1.60;;;11.40;98.00;;;;;;5094176;28;20445;-69
2022/12/29 04:41:30;;;;;;;2.43;1.30;;;11.40;98.00;;;;;;5094159;28;20454;-69
2022/12/29 04:43:58;;;;;;;1.73;1.27;;;11.50;98.00;;;;;;5094242;28;20463;-69
2022/12/29 04:46:25;;;;;;;1.50;1.33;;;11.50;98.00;;;;;;5093974;28;20505;-69
2022/12/29 04:48:52;;;;;;;2.20;1.67;;;11.50;98.00;;;;;;5094037;28;20466;-70
2022/12/29 04:51:19;;;;;;;1.30;1.10;;;11.50;98.00;;;;;;5093771;28;20463;-69
2022/12/29 04:53:47;;;;;;;1.50;1.30;;;11.60;98.00;;;;;;5093998;28;21099;-69
2022/12/29 04:56:14;;;;;;;1.40;1.37;;;11.50;98.00;;;;;;5093898;28;20465;-69
2022/12/29 04:58:42;;;;;;;1.80;1.37;;;11.40;98.00;;;;;;5093694;28;20456;-69
2022/12/29 05:01:09;;;;;;;1.67;1.33;;;11.40;98.00;;;;;;5093488;28;20456;-70
2022/12/29 05:03:36;;;;;;;1.40;1.40;;;11.40;98.00;;;;;;5093657;28;20519;-69
2022/12/29 05:06:03;;;;;;;1.70;1.27;;;11.30;98.00;;;;;;5093483;28;20492;-69
2022/12/29 05:08:31;;;;;;;3.73;1.67;;;11.30;98.00;;;;;;5092097;28;20962;-69
2022/12/29 05:10:58;;;;;;;1.80;1.30;;;11.20;98.00;;;;;;5093452;28;20990;-69
2022/12/29 05:13:25;;;;;;;2.10;1.50;;;11.10;98.00;;;;;;5093326;28;21131;-69
2022/12/29 05:15:54;;;;;;;2.90;1.60;;;11.10;98.00;;;;;;5093351;28;20947;-69
2022/12/29 05:18:21;;;;;;;2.27;1.40;;;11.10;98.00;;;;;;5093321;28;20587;-70
2022/12/29 05:20:48;;;;;;;1.70;1.40;;;11.00;98.00;;;;;;5093212;28;20449;-70
2022/12/29 05:23:16;;;;;;;1.60;1.23;;;11.00;98.00;;;;;;5093117;28;20450;-70
2022/12/29 05:25:46;;;;;;;1.90;1.40;;;11.00;98.00;;;;;;5093257;28;20485;-70
2022/12/29 05:28:13;;;;;;;2.27;1.50;;;10.90;98.00;;;;;;5093052;28;20548;-69
2022/12/29 05:30:40;;;;;;;7.50;1.43;;;10.90;98.00;;;;;;5093328;28;20847;-69
2022/12/29 05:33:11;;;;;;;1.90;1.50;;;10.90;98.00;;;;;;5093105;28;20468;-70
2022/12/29 05:35:38;;;;;;;2.40;1.40;;;10.90;98.00;;;;;;5093058;28;20514;-69
2022/12/29 05:38:05;;;;;;;4.10;1.53;;;10.80;98.00;;;;;;5092637;28;20781;-70
2022/12/29 05:40:35;;;;;;;1.73;1.50;;;10.80;98.00;;;;;;5092962;28;20463;-70
2022/12/29 05:43:02;;;;;;;2.30;1.53;;;10.80;98.00;;;;;;5092180;28;20814;-69
2022/12/29 05:45:29;;;;;;;1.60;1.27;;;10.90;98.00;;;;;;5093152;28;20461;-70
2022/12/29 05:47:56;;;;;;;1.97;1.47;;;11.00;98.00;;;;;;5092870;28;20490;-69
2022/12/29 05:50:25;;;;;;;1.90;1.27;;;11.00;98.00;;;;;;5092881;28;21000;-69
2022/12/29 05:52:52;;;;;;;1.60;1.40;;;10.90;98.00;;;;;;5092940;28;20450;-69
2022/12/29 05:55:19;;;;;;;1.53;1.40;;;11.00;98.00;;;;;;5092527;28;20486;-70
2022/12/29 05:57:46;;;;;;;1.90;1.40;;;11.00;98.00;;;;;;5092880;28;20456;-70
2022/12/29 06:00:15;;;;;;;4.30;2.00;;;11.00;98.00;;;;;;5091325;28;20848;-69
2022/12/29 06:02:42;;;;;;;1.80;1.20;;;10.90;98.00;;;;;;5092450;28;20465;-70
2022/12/29 06:05:10;;;;;;;1.70;1.27;;;10.90;98.00;;;;;;5092329;28;20820;-69
2022/12/29 06:07:39;;;;;;;1.70;1.50;;;10.90;98.00;;;;;;5092239;28;20493;-70
2022/12/29 06:10:07;;;;;;;1.77;1.30;;;10.80;98.00;;;;;;5092262;28;20977;-70
2022/12/29 06:12:34;;;;;;;1.80;1.40;;;10.90;98.00;;;;;;5091577;28;20491;-70
2022/12/29 06:15:04;;;;;;;2.80;1.30;;;10.90;98.00;;;;;;5092216;28;20483;-70
2022/12/29 06:17:31;;;;;;;1.63;1.20;;;10.90;98.00;;;;;;5091765;28;20457;-69
2022/12/29 06:19:58;;;;;;;1.70;1.33;;;11.00;98.00;;;;;;5091509;28;20453;-70
2022/12/29 06:22:25;;;;;;;1.70;1.40;;;11.00;98.00;;;;;;5091409;28;20459;-70
2022/12/29 06:24:54;;;;;;;2.23;1.50;;;11.00;98.00;;;;;;5091906;28;20522;-69
2022/12/29 06:27:21;;;;;;;1.57;1.33;;;11.00;98.00;;;;;;5092108;28;20516;-70
2022/12/29 06:29:49;;;;;;;1.40;1.13;;;11.10;98.00;;;;;;5091903;28;20456;-69
2022/12/29 06:32:17;;;;;;;1.73;1.57;;;11.10;98.00;;;;;;5092173;28;20457;-70
2022/12/29 06:34:44;;;;;;;2.47;1.57;;;11.10;98.00;;;;;;5092036;28;20983;-70
2022/12/29 06:37:11;;;;;;;3.50;1.73;;;11.10;98.00;;;;;;5092177;28;20460;-70
2022/12/29 06:39:38;;;;;;;2.90;1.60;;;11.10;98.00;;;;;;5091969;28;20475;-70
2022/12/29 06:42:07;;;;;;;2.10;1.60;;;11.00;98.00;;;;;;5092054;28;20507;-70
2022/12/29 06:44:34;;;;;;;2.20;1.50;;;11.00;98.00;;;;;;5091935;28;20466;-70
2022/12/29 06:47:01;;;;;;;2.10;1.70;;;10.90;98.00;;;;;;5092013;28;20489;-70
2022/12/29 06:49:28;;;;;;;2.80;1.30;;;10.90;98.00;;;;;;5092195;28;20807;-69
2022/12/29 06:51:55;;;;;;;1.60;1.40;;;10.90;98.00;;;;;;5092033;28;20446;-70
2022/12/29 06:54:25;;;;;;;1.70;1.40;;;10.90;98.00;;;;;;5091992;28;20917;-69
2022/12/29 06:56:52;;;;;;;2.40;1.40;;;10.90;98.00;;;;;;5092233;28;20463;-69
2022/12/29 06:59:20;;;;;;;2.90;1.50;;;10.90;98.00;;;;;;5091545;28;20452;-70
2022/12/29 07:01:47;;;;;;;1.63;1.40;;;10.90;98.00;;;;;;5091699;28;20952;-69
2022/12/29 07:04:15;;;;;;;3.40;1.33;;;10.80;98.00;;;;;;5091456;28;20470;-70
2022/12/29 07:06:42;;;;;;;2.20;1.53;;;10.80;98.00;;;;;;5091469;28;20484;-69
2022/12/29 07:09:09;;;;;;;1.73;1.20;;;10.80;98.00;;;;;;5091463;28;20453;-70
2022/12/29 07:11:37;;;;;;;1.40;1.40;;;10.80;98.00;;;;;;5091474;28;20514;-69
2022/12/29 07:14:04;;;;;;;1.97;1.37;;;10.80;98.00;;;;;;5091339;28;20959;-69
2022/12/29 07:16:34;;;;;;;2.50;1.60;;;10.80;98.00;;;;;;5091235;28;20532;-69
2022/12/29 07:19:01;;;;;;;1.73;1.33;;;10.70;98.00;;;;;;5091503;28;20478;-69
2022/12/29 07:21:28;;;;;;;5.03;1.57;;;10.70;98.00;;;;;;5091284;28;20456;-70
2022/12/29 07:23:55;;;;;;;1.70;1.37;;;10.60;98.00;;;;;;5092024;28;21021;-69
2022/12/29 07:26:23;;;;;;;1.60;1.20;;;10.60;98.00;;;;;;5095340;28;20464;-70
2022/12/29 07:28:50;;;;;;;4.07;1.40;;;10.50;98.00;;;;;;5095389;28;20465;-71
2022/12/29 07:31:19;;;;;;;1.70;1.40;;;10.50;98.00;;;;;;5095326;28;20540;-70
2022/12/29 07:33:48;;;;;;;1.90;1.40;;;10.50;98.00;;;;;;5095288;28;20523;-69
2022/12/29 07:36:16;;;;;;;2.20;1.53;;;10.50;98.00;;;;;;5095178;28;20572;-71
2022/12/29 07:38:44;;;;;;;2.13;1.43;;;10.40;98.00;;;;;;5095365;28;20795;-69
2022/12/29 07:41:14;;;;;;;2.90;1.70;;;10.40;98.00;;;;;;5095134;28;20447;-70
2022/12/29 07:43:41;;;;;;;1.77;1.40;;;10.40;98.00;;;;;;5095002;28;20463;-69
2022/12/29 07:46:08;;;;;;;2.37;1.30;;;10.30;98.00;;;;;;5095107;28;20469;-68
2022/12/29 07:48:36;;;;;;;2.00;1.50;;;10.30;98.00;;;;;;5094120;28;20449;-69
2022/12/29 07:51:05;;;;;;;2.30;1.53;;;10.30;98.00;;;;;;5095379;28;20455;-68
2022/12/29 07:53:32;;;;;;;2.10;1.50;;;10.20;98.00;;;;;;5093718;28;20487;-68
2022/12/29 07:56:00;;;;;;;5.30;1.97;;;10.10;98.00;;;;;;5094849;28;20479;-69
2022/12/29 07:58:27;;;;;;;6.30;3.23;;;10.10;98.00;;;;;;5093397;28;20462;-69
2022/12/29 08:00:54;;;;;;;2.40;1.70;;;9.90;98.00;;;;;;5094885;28;20951;-69
2022/12/29 08:03:25;;;;;;;2.90;1.60;;;9.90;98.00;;;;;;5094771;28;20823;-69
2022/12/29 08:05:53;;;;;;;7.70;2.53;;;9.90;98.00;;;;;;5094609;28;21093;-69
2022/12/29 08:08:21;;;;;;;1.53;1.50;;;9.90;98.00;;;;;;5093243;28;20447;-68
2022/12/29 08:10:48;;;;;;;2.20;1.60;;;9.80;98.00;;;;;;5094338;28;20473;-69
2022/12/29 08:13:16;;;;;;;2.43;1.70;;;9.80;98.00;;;;;;5094484;28;20953;-69
2022/12/29 08:15:43;;;;;;;2.40;1.67;;;9.80;98.00;;;;;;5094387;28;20482;-69
2022/12/29 08:18:10;;;;;;;2.30;1.70;;;9.80;98.00;;;;;;5093014;28;20460;-69
2022/12/29 08:20:38;;;;;;;1.50;1.30;;;9.90;98.00;;;;;;5094353;28;20949;-68
2022/12/29 08:23:05;;;;;;;3.13;1.30;;;10.00;98.00;;;;;;5093015;28;20456;-69
2022/12/29 08:25:34;;;;;;;1.80;1.43;;;10.00;98.00;;;;;;5094532;28;20853;-68
2022/12/29 08:28:01;;;;;;;1.97;1.30;;;10.00;98.00;;;;;;5093939;28;20558;-69
2022/12/29 08:30:29;;;;;;;1.43;1.20;;;10.00;98.00;;;;;;5094481;28;20823;-69
2022/12/29 08:32:56;;;;;;;2.30;1.80;;;10.20;98.00;;;;;;5094264;28;20938;-68
2022/12/29 08:35:23;;;;;;;2.70;1.40;;;10.20;98.00;;;;;;5089389;28;20500;-67
2022/12/29 08:37:50;;;;;;;3.33;1.67;;;10.30;98.00;;;;;;5106687;28;20466;-68
2022/12/29 08:40:17;;;;;;;1.30;1.17;;;10.30;98.00;;;;;;5101958;28;20789;-68
2022/12/29 08:42:46;;;;;;;3.00;2.37;;;10.40;98.00;;;;;;5094978;28;20460;-68
2022/12/29 08:45:13;;;;;;;5.60;2.43;;;10.50;98.00;;;;;;5108824;28;20456;-67
2022/12/29 08:47:40;;;;;;;1.53;1.47;;;10.50;98.00;;;;;;5091028;28;20474;-68
2022/12/29 08:50:08;;;;;;;1.43;1.37;;;10.50;98.00;;;;;;5101132;28;20460;-69
2022/12/29 08:52:35;;;;;;;1.97;1.37;;;10.60;98.00;;;;;;5091038;28;20459;-70
2022/12/29 08:55:02;;;;;;;1.90;1.43;;;10.70;98.00;;;;;;5090885;28;20460;-68
2022/12/29 08:57:29;;;;;;;1.90;1.50;;;10.70;98.00;;;;;;5102642;28;20460;-69
2022/12/29 08:59:58;;;;;;;1.70;1.43;;;10.80;98.00;;;;;;5099235;28;20477;-70
2022/12/29 09:02:25;;;;;;;1.90;1.37;;;10.90;98.00;;;;;;5109314;28;20463;-70
2022/12/29 09:04:52;;;;;;;2.57;1.53;;;10.90;98.00;;;;;;5090401;28;20459;-69
2022/12/29 09:07:19;;;;;;;2.27;1.60;;;11.00;98.00;;;;;;5090993;28;20461;-72
2022/12/29 09:09:46;;;;;;;1.73;1.60;;;11.00;98.00;;;;;;5093490;28;20947;-69
2022/12/29 09:12:14;;;;;;;6.50;3.00;;;11.00;98.00;;;;;;5098100;28;20458;-70
2022/12/29 09:14:44;;;;;;;3.93;1.67;;;11.00;98.00;;;;;;5092395;28;20448;-69
2022/12/29 09:20:02;;;;;;;1.80;1.30;;;11.10;98.00;;;;;;5090354;28;20510;-69
2022/12/29 09:22:29;;;;;;;1.87;1.77;;;11.00;98.00;;;;;;5073382;28;20460;-69
2022/12/29 09:24:56;;;;;;;3.63;1.43;;;11.00;98.00;;;;;;5097169;28;20943;-70
2022/12/29 09:27:23;;;;;;;2.10;1.33;;;11.10;98.00;;;;;;5093452;28;20458;-70
2022/12/29 09:29:51;;;;;;;2.03;1.60;;;11.10;98.00;;;;;;5105133;28;20856;-70
2022/12/29 09:32:19;;;;;;;2.77;1.63;;;11.10;98.00;;;;;;5092005;28;20462;-69
2022/12/29 09:34:46;;;;;;;1.40;1.40;;;11.10;98.00;;;;;;5105492;28;20808;-70
2022/12/29 09:37:13;;;;;;;1.57;1.40;;;11.10;98.00;;;;;;5110155;28;20490;-70
2022/12/29 09:39:40;;;;;;;2.13;1.77;;;11.20;98.00;;;;;;5106270;28;20458;-69
2022/12/29 09:42:13;;;;;;;1.70;1.37;;;11.20;98.00;;;;;;5100752;28;20484;-71
2022/12/29 09:44:52;;;;;;;2.53;1.53;;;11.30;98.00;;;;;;5099912;28;20458;-70
2022/12/29 09:47:24;;;;;;;1.37;1.20;;;11.30;98.00;;;;;;5090043;28;20486;-70
2022/12/29 09:49:55;;;;;;;2.30;1.63;;;11.40;98.00;;;;;;5092311;28;20464;-64
2022/12/29 09:52:25;;;;;;;2.60;1.30;;;11.50;98.00;;;;;;5092952;28;20453;-63
2022/12/29 09:54:55;;;;;;;2.57;1.40;;;11.90;98.00;;;;;;5095016;28;20502;-63
2022/12/29 09:57:27;;;;;;;2.90;1.67;;;12.50;98.00;;;;;;5099507;28;20503;-70
2022/12/29 09:59:58;;;;;;;1.90;1.77;;;12.70;98.00;;;;;;5108244;28;20453;-70
2022/12/29 10:02:33;;;;;;;3.83;1.40;;;12.70;98.00;;;;;;5112017;28;20527;-70
2022/12/29 10:05:00;;;;;;;1.50;1.30;;;12.60;98.00;;;;;;5111814;28;20513;-71
2022/12/29 10:07:39;;;;;;;1.83;1.33;;;12.60;98.00;;;;;;5112201;28;20444;-71
2022/12/29 10:10:24;;;;;;;3.17;1.50;;;12.60;98.00;;;;;;5112156;28;20455;-70
2022/12/29 10:13:02;;;;;;;2.33;1.47;;;12.60;98.00;;;;;;5112064;28;20458;-70
2022/12/29 10:15:45;;;;;;;1.63;1.30;;;12.70;98.00;;;;;;5111942;28;20893;-69
2022/12/29 10:18:30;;;;;;;2.20;1.57;;;12.70;98.00;;;;;;5112039;28;20451;-70
2022/12/29 10:21:02;;;;;;;3.50;1.53;;;12.80;98.00;;;;;;5111960;28;20467;-70
2022/12/29 10:23:33;;;;;;;1.83;1.30;;;12.90;98.00;;;;;;5111809;28;20456;-69
2022/12/29 10:26:03;;;;;;;2.00;1.50;;;12.90;98.00;;;;;;5111802;28;20885;-71
2022/12/29 10:28:38;;;;;;;2.50;1.67;;;13.00;98.00;;;;;;5111757;28;20468;-70
2022/12/29 10:31:09;;;;;;;1.93;1.60;;;12.90;98.00;;;;;;5111826;28;20490;-70
2022/12/29 10:33:43;;;;;;;2.07;1.50;;;12.90;98.00;;;;;;5111720;28;20463;-69
2022/12/29 10:36:17;;;;;;;1.30;1.13;;;12.90;98.00;;;;;;5111649;28;20485;-69
2022/12/29 10:38:52;;;;;;;3.90;1.80;;;12.90;98.00;;;;;;5111595;28;20448;-69
2022/12/29 10:41:25;;;;;;;6.70;1.80;;;12.90;98.00;;;;;;5111333;28;20466;-71
2022/12/29 10:43:55;;;;;;;3.00;1.50;;;12.90;98.00;;;;;;5111596;28;20459;-69
2022/12/29 10:46:25;;;;;;;2.37;1.30;;;12.90;98.00;;;;;;5111363;28;20467;-70
2022/12/29 10:48:53;;;;;;;2.63;1.50;;;13.00;98.00;;;;;;5111340;28;20457;-70
2022/12/29 10:51:25;;;;;;;1.50;1.37;;;13.00;98.00;;;;;;5111475;28;20503;-71
2022/12/29 10:53:56;;;;;;;3.73;1.63;;;13.10;98.00;;;;;;5110342;28;20480;-69
2022/12/29 10:56:31;;;;;;;1.87;1.40;;;13.10;98.00;;;;;;5111632;28;20485;-70
2022/12/29 10:59:02;;;;;;;1.83;1.33;;;13.20;98.00;;;;;;5111318;28;20827;-71
2022/12/29 11:01:42;;;;;;;1.40;1.30;;;13.20;98.00;;;;;;5111326;28;20459;-68
2022/12/29 11:04:36;;;;;;;2.80;1.50;;;13.30;98.00;;;;;;5111124;28;20554;-72
2022/12/29 11:07:06;;;;;;;3.53;1.63;;;13.60;98.00;;;;;;5111219;28;20501;-70
2022/12/29 11:09:36;;;;;;;4.47;1.63;;;13.80;98.00;;;;;;5111210;28;20793;-71
2022/12/29 11:12:20;;;;;;;1.67;1.63;;;14.00;98.00;;;;;;5111179;28;20467;-71
2022/12/29 11:14:47;;;;;;;1.60;1.37;;;14.10;98.00;;;;;;5111232;28;20493;-70
2022/12/29 11:17:17;;;;;;;1.40;1.30;;;14.20;98.00;;;;;;5111040;28;20490;-70
2022/12/29 11:19:48;;;;;;;2.37;1.40;;;14.30;98.00;;;;;;5111162;28;20465;-70
2022/12/29 11:22:22;;;;;;;1.60;1.40;;;14.50;98.00;;;;;;5111089;28;20465;-71
2022/12/29 11:24:51;;;;;;;2.90;1.60;;;14.40;98.00;;;;;;5111232;28;20462;-69
2022/12/29 11:27:20;;;;;;;2.23;1.40;;;14.30;98.00;;;;;;5111184;28;20936;-70
2022/12/29 11:29:48;;;;;;;2.63;1.70;;;14.20;98.00;;;;;;5111059;28;20457;-70
2022/12/29 11:32:20;;;;;;;3.17;1.50;;;14.20;98.00;;;;;;5110907;28;20462;-71
2022/12/29 11:34:51;;;;;;;2.93;1.70;;;14.10;98.00;;;;;;5110975;28;20460;-71
2022/12/29 11:37:20;;;;;;;1.93;1.40;;;14.10;98.00;;;;;;5110949;28;20518;-70
2022/12/29 11:39:53;;;;;;;2.50;1.50;;;14.10;98.00;;;;;;5111046;28;20980;-70
2022/12/29 11:42:23;;;;;;;1.60;1.27;;;14.10;98.00;;;;;;5111012;28;20460;-69
2022/12/29 11:44:52;;;;;;;2.10;1.50;;;14.10;98.00;;;;;;5111048;28;20465;-70
2022/12/29 11:47:29;;;;;;;2.20;1.70;;;14.10;98.00;;;;;;5110714;28;20617;-68
2022/12/29 11:50:00;;;;;;;1.80;1.40;;;14.00;98.00;;;;;;5111015;28;20460;-69
2022/12/29 11:52:34;;;;;;;1.83;1.50;;;14.00;98.00;;;;;;5111070;28;20454;-72
2022/12/29 11:55:05;;;;;;;4.80;1.83;;;13.80;98.00;;;;;;5110977;28;20480;-69
2022/12/29 11:57:36;;;;;;;1.87;1.40;;;13.70;98.00;;;;;;5111147;28;20480;-70
2022/12/29 12:00:16;;;;;;;2.00;1.53;;;13.70;98.00;;;;;;5110859;28;20478;-71
2022/12/29 12:03:09;;;;;;;7.40;1.77;;;13.50;98.00;;;;;;5110797;28;20534;-69
2022/12/29 12:05:44;;;;;;;1.47;1.23;;;13.50;98.00;;;;;;5110636;28;20462;-70
2022/12/29 12:08:17;;;;;;;2.33;1.50;;;13.50;98.00;;;;;;5110743;28;20471;-69
2022/12/29 12:10:49;;;;;;;1.50;1.40;;;13.50;98.00;;;;;;5111364;28;20452;-70
2022/12/29 12:13:22;;;;;;;2.50;1.40;;;13.60;98.00;;;;;;5114344;28;20457;-71
2022/12/29 12:15:53;;;;;;;1.80;1.40;;;13.60;98.00;;;;;;5114225;28;20529;-69
2022/12/29 12:18:28;;;;;;;2.07;1.63;;;13.70;98.00;;;;;;5114415;28;20945;-70
2022/12/29 12:21:01;;;;;;;1.90;1.40;;;13.70;98.00;;;;;;5114296;28;20612;-69
2022/12/29 12:23:42;;;;;;;1.90;1.53;;;13.60;98.00;;;;;;5114120;28;20489;-71
2022/12/29 12:26:13;;;;;;;1.87;1.50;;;13.60;98.00;;;;;;5114164;28;20451;-70
2022/12/29 12:28:49;;;;;;;1.97;1.33;;;13.50;98.00;;;;;;5114026;28;21019;-70
2022/12/29 12:31:35;;;;;;;1.70;1.47;;;13.50;98.00;;;;;;5114028;28;20459;-69
2022/12/29 12:34:07;;;;;;;3.37;1.50;;;13.40;98.00;;;;;;5112693;28;20465;-69
2022/12/29 12:36:55;;;;;;;1.70;1.43;;;13.40;98.00;;;;;;5113930;28;20486;-70
2022/12/29 12:39:27;;;;;;;1.60;1.30;;;13.40;98.00;;;;;;5113692;28;20516;-69
2022/12/29 12:42:06;;;;;;;2.73;1.37;;;13.40;98.00;;;;;;5114019;28;20707;-69
2022/12/29 12:44:42;;;;;;;2.63;1.50;;;13.30;98.00;;;;;;5113975;28;20455;-70
2022/12/29 12:47:20;;;;;;;1.80;1.43;;;13.40;98.00;;;;;;5113660;28;20603;-71
2022/12/29 12:50:06;;;;;;;3.43;1.83;;;13.40;98.00;;;;;;5113751;28;20455;-71
2022/12/29 12:52:49;;;;;;;2.50;1.70;;;13.30;98.00;;;;;;5114125;28;20511;-69
2022/12/29 12:55:39;;;;;;;2.10;1.40;;;13.30;98.00;;;;;;5113661;28;20521;-69
2022/12/29 12:58:12;;;;;;;1.80;1.27;;;13.20;98.00;;;;;;5113387;28;20484;-70
2022/12/29 13:00:49;;;;;;;2.60;1.50;;;13.10;98.00;;;;;;5113538;28;20463;-71
2022/12/29 13:03:26;;;;;;;1.33;1.20;;;13.00;98.00;;;;;;5113439;28;20451;-71
2022/12/29 13:06:08;;;;;;;2.10;1.60;;;13.00;98.00;;;;;;5113571;28;20466;-70
2022/12/29 13:09:01;;;;;;;1.70;1.50;;;13.00;98.00;;;;;;5113152;28;20535;-70
2022/12/29 13:11:36;;;;;;;2.37;1.50;;;13.10;98.00;;;;;;5113502;28;20464;-70
2022/12/29 13:14:16;;;;;;;5.87;1.50;;;13.10;98.00;;;;;;5113109;28;20836;-71
2022/12/29 13:16:50;;;;;;;2.43;1.50;;;13.20;98.00;;;;;;5113152;28;20522;-70
2022/12/29 13:19:25;;;;;;;2.27;1.60;;;13.20;98.00;;;;;;5113072;27;20477;-70
2022/12/29 13:22:09;;;;;;;1.40;1.23;;;13.20;98.00;;;;;;5113039;28;20486;-70
2022/12/29 13:24:51;;;;;;;1.40;1.23;;;13.20;98.00;;;;;;5112847;28;20465;-71
2022/12/29 13:27:25;;;;;;;1.47;1.30;;;13.20;98.00;;;;;;5112825;28;20492;-70
2022/12/29 13:29:58;;;;;;;1.83;1.40;;;13.20;98.00;;;;;;5112777;28;20942;-70
2022/12/29 13:32:38;;;;;;;2.27;1.50;;;13.20;98.00;;;;;;5112710;28;21014;-70
2022/12/29 13:35:30;;;;;;;2.67;1.57;;;13.20;98.00;;;;;;5112735;28;20458;-70
2022/12/29 13:38:02;;;;;;;1.70;1.50;;;13.20;98.00;;;;;;5112675;28;20544;-70
2022/12/29 13:40:35;;;;;;;2.40;1.57;;;13.10;98.00;;;;;;5112559;28;20455;-70
2022/12/29 13:43:03;;;;;;;1.87;1.27;;;13.10;98.00;;;;;;5112643;28;20538;-69
2022/12/29 13:45:33;;;;;;;2.37;1.50;;;13.10;98.00;;;;;;5112826;28;20452;-71